Flight Track Log - Related Links

Times and Time Zones

All times are in EDT time to prevent confusion due to time zone crossing. See the UCA4850 flight status page for this flight to view local times or setup timezone preferences in your user account.

Time Position Orientation Groundspeed Altitude Reporting Facility
EDT Latitude Longitude Course Direction KTS MPH feet Rate Location/Type
Sat 06:09:18 PM 39.2000 -76.6833 46° Northeast 181 208 1,600  Level Potomac TRACON
Sat 06:10:18 PM 39.2500 -76.6500 27° Northeast 189 217 2,900 1,200 Climbing Potomac TRACON
Sat 06:11:18 PM 39.2667 -76.6000 67° East 215 247 4,000 1,339 Climbing Potomac TRACON
Sat 06:12:19 PM 39.2167 -76.5500 142° Southeast 201 231 5,600 1,388 Climbing Potomac TRACON
Sat 06:13:19 PM 39.2000 -76.4833 108° East 198 228 6,800 1,150 Climbing Potomac TRACON
Sat 06:14:00 PM 39.2472 -76.1037 46° Northeast  Level FlightAware
Sat 06:14:19 PM 39.1833 -76.4167 108° East 214 246 7,900  Level Potomac TRACON
Sat 06:15:19 PM 39.2167 -76.3500 57° Northeast 208 239 9,000 1,140 Climbing Potomac TRACON
Sat 06:16:20 PM 39.2667 -76.3000 38° Northeast 209 241 10,200 1,034 Climbing Potomac TRACON
Sat 06:17:15 PM 39.3000 -76.2333 57° Northeast 215 247 11,000 397 Climbing Potomac TRACON
Sat 06:18:21 PM 39.3500 -76.1667 46° Northeast 256 295 11,000 -45 Level Potomac TRACON
Sat 06:19:27 PM 39.4000 -76.0833 52° Northeast 273 314 10,900  Descending Philadelphia TRACON
Sat 06:20:27 PM 39.4500 -76.0000 52° Northeast 275 316 11,000 50 Climbing Philadelphia TRACON
Sat 06:21:28 PM 39.4833 -75.9167 63° Northeast 268 308 11,000  Level Philadelphia TRACON
Sat 06:22:28 PM 39.5333 -75.8500 46° Northeast 271 312 11,000  Level Philadelphia TRACON
Sat 06:23:28 PM 39.5833 -75.7667 52° Northeast 269 310 11,000  Level Philadelphia TRACON
Sat 06:24:28 PM 39.6333 -75.7000 46° Northeast 268 308 11,000  Level Philadelphia TRACON
Sat 06:25:28 PM 39.6667 -75.6167 63° Northeast 269 310 11,000 -50 Level Philadelphia TRACON
Sat 06:26:28 PM 39.7000 -75.5333 63° Northeast 277 319 10,900 -450 Descending Philadelphia TRACON
Sat 06:27:28 PM 39.7333 -75.4333 67° East 282 325 10,100 -950 Descending Philadelphia TRACON
Sat 06:28:28 PM 39.7500 -75.3333 78° East 293 337 9,000 -700 Descending Philadelphia TRACON
Sat 06:29:28 PM 39.7833 -75.2333 67° East 267 307 8,700 -500 Descending Philadelphia TRACON
Sat 06:30:28 PM 39.8167 -75.1500 62° Northeast 272 313 8,000 -350 Descending Philadelphia TRACON
Sat 06:31:28 PM 39.8333 -75.0667 75° East 256 295 8,000  Level Philadelphia TRACON
Sat 06:32:28 PM 39.8667 -74.9833 62° Northeast 254 292 8,000  Level Philadelphia TRACON
Sat 06:33:28 PM 39.9167 -74.9167 46° Northeast 255 293 8,000  Level Philadelphia TRACON
Sat 06:34:28 PM 39.9500 -74.8500 57° Northeast 255 293 8,000 -200 Level Philadelphia TRACON
Sat 06:35:28 PM 40.0000 -74.7833 46° Northeast 261 300 7,600 -496 Descending Philadelphia TRACON
Sat 06:36:29 PM 40.0500 -74.7167 46° Northeast 270 311 7,000 -298 Descending New TRACON
Sat 06:37:29 PM 40.1167 -74.6833 21° North 250 288 7,000  Level New TRACON
Sat 06:38:29 PM 40.1833 -74.6500 21° North 248 285 7,000  Level New TRACON
Sat 06:39:29 PM 40.2500 -74.6167 21° North 243 280 7,000  Level New TRACON
Sat 06:40:29 PM 40.3167 -74.5833 21° North 243 280 7,000  Level New TRACON
Sat 06:41:35 PM 40.3833 -74.5833 360° North 245 282 7,000  Level New TRACON
Sat 06:42:29 PM 40.4333 -74.6333 323° Northwest 238 274 7,000  Level New TRACON
Sat 06:43:29 PM 40.4833 -74.6667 333° Northwest 236 272 7,000 -248 Level New TRACON
Sat 06:44:30 PM 40.5500 -74.7167 330° Northwest 241 277 6,500 -500 Descending New TRACON
Sat 06:45:29 PM 40.6167 -74.7167 360° North 257 296 6,000 -250 Descending New TRACON
Sat 06:46:30 PM 40.6833 -74.7167 360° North 246 283 6,000  Level New TRACON
Sat 06:47:29 PM 40.7500 -74.6833 21° North 249 287 6,000 -48 Level New TRACON
Sat 06:48:35 PM 40.8167 -74.6500 21° North 246 283 5,900  Descending New TRACON
Sat 06:49:35 PM 40.8667 -74.5833 45° Northeast 257 296 6,000 -100 Climbing New TRACON
Sat 06:50:35 PM 40.9000 -74.5000 62° Northeast 258 297 5,700 -500 Descending New TRACON
Sat 06:51:35 PM 40.9333 -74.4167 62° Northeast 256 295 5,000 -347 Descending New TRACON
Sat 06:52:36 PM 40.9667 -74.3500 56° Northeast 238 274 5,000  Level New TRACON
Sat 06:53:36 PM 40.9500 -74.2500 102° East 252 290 5,000 -200 Level New TRACON
Sat 06:54:36 PM 40.9333 -74.1667 105° East 256 295 4,600 -500 Descending New TRACON
Sat 06:55:36 PM 40.9167 -74.0833 105° East 235 270 4,000 -807 Descending New TRACON
Sat 06:56:35 PM 40.8833 -74.0333 131° Southeast 197 227 3,000 -450 Descending New TRACON
Sat 06:57:36 PM 40.8333 -74.0500 194° South 174 200 3,100 -198 Climbing New TRACON
Sat 06:58:36 PM 40.8000 -74.0833 217° Southwest 163 188 2,600 -750 Descending New TRACON
Sat 06:59:36 PM 40.7667 -74.1167 217° Southwest 169 194 1,600 -900 Descending New TRACON
Sat 07:00:36 PM 40.7333 -74.1500 217° Southwest 127 146 800 -800 Descending New TRACON

Login

Don't have an account? Register now (free) for customized features, flight alerts, and more!